sensor_id;sensor_type;location;lat;lon;timestamp;pressure;altitude;pressure_sealevel;temperature;humidity
36726;BME280;44936;52.086;5.150;2023-03-23T00:01:28;100546.22;;;10.56;100.00
36726;BME280;44936;52.086;5.150;2023-03-23T00:03:56;100549.72;;;10.52;100.00
36726;BME280;44936;52.086;5.150;2023-03-23T00:06:29;100547.09;;;10.57;100.00
36726;BME280;44936;52.086;5.150;2023-03-23T00:08:58;100584.69;;;10.69;100.00
36726;BME280;44936;52.086;5.150;2023-03-23T00:11:28;100600.41;;;10.69;100.00
36726;BME280;44936;52.086;5.150;2023-03-23T00:13:59;100601.28;;;10.65;100.00
36726;BME280;44936;52.086;5.150;2023-03-23T00:16:32;100596.03;;;10.58;100.00
36726;BME280;44936;52.086;5.150;2023-03-23T00:19:01;100623.13;;;10.60;100.00
36726;BME280;44936;52.086;5.150;2023-03-23T00:21:35;100637.97;;;10.76;100.00
36726;BME280;44936;52.086;5.150;2023-03-23T00:24:16;100649.34;;;10.81;100.00
36726;BME280;44936;52.086;5.150;2023-03-23T00:26:45;100649.34;;;10.76;100.00
36726;BME280;44936;52.086;5.150;2023-03-23T00:29:23;100668.56;;;10.85;100.00
36726;BME280;44936;52.086;5.150;2023-03-23T00:31:49;100679.97;;;10.82;100.00
36726;BME280;44936;52.086;5.150;2023-03-23T00:34:18;100684.34;;;10.88;100.00
36726;BME280;44936;52.086;5.150;2023-03-23T00:36:52;100665.09;;;10.73;100.00
36726;BME280;44936;52.086;5.150;2023-03-23T00:39:28;100680.81;;;10.86;100.00
36726;BME280;44936;52.086;5.150;2023-03-23T00:41:54;100672.09;;;10.81;100.00
36726;BME280;44936;52.086;5.150;2023-03-23T00:44:30;100658.97;;;10.73;100.00
36726;BME280;44936;52.086;5.150;2023-03-23T00:46:57;100667.72;;;10.76;100.00
36726;BME280;44936;52.086;5.150;2023-03-23T00:49:28;100673.81;;;10.86;100.00
36726;BME280;44936;52.086;5.150;2023-03-23T00:51:56;100678.19;;;10.93;100.00
36726;BME280;44936;52.086;5.150;2023-03-23T00:54:25;100670.31;;;10.86;100.00
36726;BME280;44936;52.086;5.150;2023-03-23T00:56:51;100677.34;;;10.81;100.00
36726;BME280;44936;52.086;5.150;2023-03-23T00:59:20;100681.69;;;10.86;100.00
36726;BME280;44936;52.086;5.150;2023-03-23T01:01:47;100679.06;;;10.95;100.00
36726;BME280;44936;52.086;5.150;2023-03-23T01:04:13;100687.78;;;11.03;100.00
36726;BME280;44936;52.086;5.150;2023-03-23T01:06:43;100690.41;;;11.03;100.00
36726;BME280;44936;52.086;5.150;2023-03-23T01:09:15;100671.19;;;11.00;100.00
36726;BME280;44936;52.086;5.150;2023-03-23T01:11:43;100681.72;;;10.97;100.00
36726;BME280;44936;52.086;5.150;2023-03-23T01:14:12;100674.72;;;10.88;100.00
36726;BME280;44936;52.086;5.150;2023-03-23T01:16:38;100700.97;;;10.96;100.00
36726;BME280;44936;52.086;5.150;2023-03-23T01:19:03;100694.81;;;10.98;100.00
36726;BME280;44936;52.086;5.150;2023-03-23T01:21:29;100650.22;;;10.80;100.00
36726;BME280;44936;52.086;5.150;2023-03-23T01:23:54;100653.72;;;10.97;100.00
36726;BME280;44936;52.086;5.150;2023-03-23T01:26:22;100669.44;;;10.99;100.00
36726;BME280;44936;52.086;5.150;2023-03-23T01:28:51;100646.72;;;10.84;100.00
36726;BME280;44936;52.086;5.150;2023-03-23T01:31:19;100614.38;;;10.73;100.00
36726;BME280;44936;52.086;5.150;2023-03-23T01:33:46;100650.22;;;10.98;100.00
36726;BME280;44936;52.086;5.150;2023-03-23T01:36:15;100632.72;;;10.85;100.00
36726;BME280;44936;52.086;5.150;2023-03-23T01:38:42;100624.00;;;10.75;100.00
36726;BME280;44936;52.086;5.150;2023-03-23T01:41:12;100635.34;;;10.88;100.00
36726;BME280;44936;52.086;5.150;2023-03-23T01:43:58;100641.44;;;10.93;100.00
36726;BME280;44936;52.086;5.150;2023-03-23T01:46:27;100653.69;;;10.93;100.00
36726;BME280;44936;52.086;5.150;2023-03-23T01:48:54;100603.03;;;10.72;100.00
36726;BME280;44936;52.086;5.150;2023-03-23T01:51:21;100637.06;;;10.94;100.00
36726;BME280;44936;52.086;5.150;2023-03-23T01:53:51;100644.09;;;10.92;100.00
36726;BME280;44936;52.086;5.150;2023-03-23T01:56:21;100647.56;;;10.95;100.00
36726;BME280;44936;52.086;5.150;2023-03-23T01:58:50;100624.84;;;10.93;100.00
36726;BME280;44936;52.086;5.150;2023-03-23T02:01:17;100635.31;;;10.94;100.00
36726;BME280;44936;52.086;5.150;2023-03-23T02:03:50;100609.97;;;10.84;100.00
36726;BME280;44936;52.086;5.150;2023-03-23T02:06:22;100633.59;;;10.93;100.00
36726;BME280;44936;52.086;5.150;2023-03-23T02:08:51;100585.53;;;10.73;100.00
36726;BME280;44936;52.086;5.150;2023-03-23T02:11:19;100614.34;;;10.93;100.00
36726;BME280;44936;52.086;5.150;2023-03-23T02:13:49;100595.13;;;10.80;100.00
36726;BME280;44936;52.086;5.150;2023-03-23T02:16:23;100609.09;;;10.97;100.00
36726;BME280;44936;52.086;5.150;2023-03-23T02:22:02;100610.84;;;10.86;100.00
36726;BME280;44936;52.086;5.150;2023-03-23T02:24:53;100633.59;;;10.99;100.00
36726;BME280;44936;52.086;5.150;2023-03-23T02:35:50;100616.06;;;11.06;100.00
36726;BME280;44936;52.086;5.150;2023-03-23T02:38:23;100637.91;;;11.16;100.00
36726;BME280;44936;52.086;5.150;2023-03-23T02:40:55;100603.84;;;10.94;100.00
36726;BME280;44936;52.086;5.150;2023-03-23T02:43:24;100604.72;;;10.99;100.00
36726;BME280;44936;52.086;5.150;2023-03-23T02:45:53;100625.72;;;11.05;100.00
36726;BME280;44936;52.086;5.150;2023-03-23T02:48:28;100631.78;;;11.12;100.00
36726;BME280;44936;52.086;5.150;2023-03-23T02:51:00;100594.22;;;10.92;100.00
36726;BME280;44936;52.086;5.150;2023-03-23T02:53:28;100625.72;;;11.05;100.00
36726;BME280;44936;52.086;5.150;2023-03-23T02:55:58;100600.34;;;11.06;100.00
36726;BME280;44936;52.086;5.150;2023-03-23T02:58:33;100629.16;;;11.20;100.00
36726;BME280;44936;52.086;5.150;2023-03-23T03:00:58;100585.47;;;11.05;100.00
36726;BME280;44936;52.086;5.150;2023-03-23T03:03:31;100587.22;;;11.04;100.00
36726;BME280;44936;52.086;5.150;2023-03-23T03:11:13;100606.44;;;11.06;100.00
36726;BME280;44936;52.086;5.150;2023-03-23T03:13:49;100626.53;;;11.12;100.00
36726;BME280;44936;52.086;5.150;2023-03-23T03:16:45;100616.03;;;11.18;100.00
36726;BME280;44936;52.086;5.150;2023-03-23T03:19:44;100630.06;;;11.16;100.00
36726;BME280;44936;52.086;5.150;2023-03-23T03:22:14;100593.34;;;10.97;100.00
36726;BME280;44936;52.086;5.150;2023-03-23T03:24:41;100612.56;;;11.15;100.00
36726;BME280;44936;52.086;5.150;2023-03-23T03:27:19;100581.97;;;10.95;100.00
36726;BME280;44936;52.086;5.150;2023-03-23T03:29:48;100609.94;;;11.15;100.00
36726;BME280;44936;52.086;5.150;2023-03-23T03:32:20;100595.97;;;11.00;100.00
36726;BME280;44936;52.086;5.150;2023-03-23T03:34:48;100456.84;;;11.03;100.00
36726;BME280;44936;52.086;5.150;2023-03-23T03:37:16;100369.44;;;10.94;100.00
36726;BME280;44936;52.086;5.150;2023-03-23T03:39:42;100352.81;;;10.95;100.00
36726;BME280;44936;52.086;5.150;2023-03-23T03:42:08;100329.19;;;10.96;100.00
36726;BME280;44936;52.086;5.150;2023-03-23T03:44:33;100370.34;;;10.88;100.00
36726;BME280;44936;52.086;5.150;2023-03-23T03:46:59;100429.81;;;10.86;100.00
36726;BME280;44936;52.086;5.150;2023-03-23T03:49:25;100464.78;;;10.96;100.00
36726;BME280;44936;52.086;5.150;2023-03-23T03:51:51;100510.22;;;11.05;100.00
36726;BME280;44936;52.086;5.150;2023-03-23T03:54:17;100520.72;;;11.05;100.00
36726;BME280;44936;52.086;5.150;2023-03-23T03:56:43;100523.41;;;10.90;100.00
36726;BME280;44936;52.086;5.150;2023-03-23T03:59:10;100560.94;;;11.09;100.00
36726;BME280;44936;52.086;5.150;2023-03-23T04:01:37;100579.28;;;11.18;100.00
36726;BME280;44936;52.086;5.150;2023-03-23T04:04:08;100578.38;;;11.21;100.00
36726;BME280;44936;52.086;5.150;2023-03-23T04:06:37;100555.72;;;10.95;100.00
36726;BME280;44936;52.086;5.150;2023-03-23T04:09:05;100588.91;;;11.24;100.00
36726;BME280;44936;52.086;5.150;2023-03-23T04:11:35;100603.75;;;11.28;100.00
36726;BME280;44936;52.086;5.150;2023-03-23T04:14:01;100608.13;;;11.26;100.00
36726;BME280;44936;52.086;5.150;2023-03-23T04:16:31;100597.69;;;11.15;100.00
36726;BME280;44936;52.086;5.150;2023-03-23T04:19:01;100621.25;;;11.29;100.00
36726;BME280;44936;52.086;5.150;2023-03-23T04:21:26;100616.84;;;11.34;100.00
36726;BME280;44936;52.086;5.150;2023-03-23T04:23:54;100628.22;;;11.30;100.00
36726;BME280;44936;52.086;5.150;2023-03-23T04:26:22;100607.28;;;11.19;100.00
36726;BME280;44936;52.086;5.150;2023-03-23T04:28:55;100639.63;;;11.33;100.00
36726;BME280;44936;52.086;5.150;2023-03-23T04:31:22;100631.72;;;11.30;100.00
36726;BME280;44936;52.086;5.150;2023-03-23T04:33:52;100643.09;;;11.40;100.00
36726;BME280;44936;52.086;5.150;2023-03-23T04:36:19;100640.50;;;11.34;100.00
36726;BME280;44936;52.086;5.150;2023-03-23T04:38:45;100661.50;;;11.40;100.00
36726;BME280;44936;52.086;5.150;2023-03-23T04:41:10;100647.50;;;11.32;100.00
36726;BME280;44936;52.086;5.150;2023-03-23T04:43:39;100645.78;;;11.23;100.00
36726;BME280;44936;52.086;5.150;2023-03-23T04:46:08;100657.13;;;11.33;100.00
36726;BME280;44936;52.086;5.150;2023-03-23T04:48:40;100644.00;;;11.21;100.00
36726;BME280;44936;52.086;5.150;2023-03-23T04:51:06;100626.53;;;11.18;100.00
36726;BME280;44936;52.086;5.150;2023-03-23T04:53:31;100634.44;;;11.07;100.00
36726;BME280;44936;52.086;5.150;2023-03-23T04:55:57;100632.69;;;11.08;100.00
36726;BME280;44936;52.086;5.150;2023-03-23T04:58:22;100640.56;;;11.08;100.00
36726;BME280;44936;52.086;5.150;2023-03-23T05:00:52;100648.44;;;11.10;100.00
36726;BME280;44936;52.086;5.150;2023-03-23T05:03:19;100676.41;;;11.11;100.00
36726;BME280;44936;52.086;5.150;2023-03-23T05:05:46;100663.28;;;11.12;100.00
36726;BME280;44936;52.086;5.150;2023-03-23T05:08:22;100648.47;;;10.97;100.00
36726;BME280;44936;52.086;5.150;2023-03-23T05:11:00;100650.22;;;10.92;100.00
36726;BME280;44936;52.086;5.150;2023-03-23T05:13:27;100650.19;;;10.95;100.00
36726;BME280;44936;52.086;5.150;2023-03-23T05:16:04;100622.22;;;10.84;100.00
36726;BME280;44936;52.086;5.150;2023-03-23T05:18:30;100597.75;;;10.77;100.00
36726;BME280;44936;52.086;5.150;2023-03-23T05:21:01;100571.50;;;10.77;100.00
36726;BME280;44936;52.086;5.150;2023-03-23T05:23:31;100564.53;;;10.73;100.00
36726;BME280;44936;52.086;5.150;2023-03-23T05:25:58;100557.56;;;10.66;100.00
36726;BME280;44936;52.086;5.150;2023-03-23T05:28:26;100589.00;;;10.84;100.00
36726;BME280;44936;52.086;5.150;2023-03-23T05:30:56;100606.50;;;10.76;100.00
36726;BME280;44936;52.086;5.150;2023-03-23T05:33:23;100572.44;;;10.61;100.00
36726;BME280;44936;52.086;5.150;2023-03-23T05:35:51;100584.69;;;10.54;100.00
36726;BME280;44936;52.086;5.150;2023-03-23T05:38:17;100570.69;;;10.57;100.00
36726;BME280;44936;52.086;5.150;2023-03-23T05:40:43;100568.03;;;10.60;100.00
36726;BME280;44936;52.086;5.150;2023-03-23T05:43:09;100568.94;;;10.71;100.00
36726;BME280;44936;52.086;5.150;2023-03-23T05:45:34;100528.72;;;10.55;100.00
36726;BME280;44936;52.086;5.150;2023-03-23T05:48:00;100531.34;;;10.63;100.00
36726;BME280;44936;52.086;5.150;2023-03-23T05:50:26;100536.59;;;10.54;100.00
36726;BME280;44936;52.086;5.150;2023-03-23T05:52:55;100520.88;;;10.46;100.00
36726;BME280;44936;52.086;5.150;2023-03-23T05:55:23;100546.25;;;10.52;100.00
36726;BME280;44936;52.086;5.150;2023-03-23T05:57:48;100506.03;;;10.40;100.00
36726;BME280;44936;52.086;5.150;2023-03-23T06:00:14;100530.47;;;10.61;100.00
36726;BME280;44936;52.086;5.150;2023-03-23T06:02:40;100499.00;;;10.58;100.00
36726;BME280;44936;52.086;5.150;2023-03-23T06:05:11;100503.38;;;10.56;100.00
36726;BME280;44936;52.086;5.150;2023-03-23T06:07:37;100471.94;;;10.46;100.00
36726;BME280;44936;52.086;5.150;2023-03-23T06:10:07;100499.94;;;10.31;100.00
36726;BME280;44936;52.086;5.150;2023-03-23T06:12:37;100499.03;;;10.32;100.00
36726;BME280;44936;52.086;5.150;2023-03-23T06:15:03;100492.06;;;10.38;100.00
36726;BME280;44936;52.086;5.150;2023-03-23T06:17:29;100523.47;;;10.57;100.00
36726;BME280;44936;52.086;5.150;2023-03-23T06:19:55;100520.84;;;10.57;100.00
36726;BME280;44936;52.086;5.150;2023-03-23T06:22:20;100516.47;;;10.63;100.00
36726;BME280;44936;52.086;5.150;2023-03-23T06:24:49;100496.41;;;10.48;100.00
36726;BME280;44936;52.086;5.150;2023-03-23T06:27:14;100505.13;;;10.57;100.00
36726;BME280;44936;52.086;5.150;2023-03-23T06:29:43;100533.13;;;10.52;100.00
36726;BME280;44936;52.086;5.150;2023-03-23T06:32:12;100515.63;;;10.41;100.00
36726;BME280;44936;52.086;5.150;2023-03-23T06:34:38;100546.22;;;10.56;100.00
36726;BME280;44936;52.086;5.150;2023-03-23T06:37:04;100527.88;;;10.45;100.00
36726;BME280;44936;52.086;5.150;2023-03-23T06:39:30;100531.38;;;10.47;100.00
36726;BME280;44936;52.086;5.150;2023-03-23T06:41:58;100561.09;;;10.53;100.00
36726;BME280;44936;52.086;5.150;2023-03-23T06:44:25;100573.28;;;10.66;100.00
36726;BME280;44936;52.086;5.150;2023-03-23T06:46:53;100547.97;;;10.53;100.00
36726;BME280;44936;52.086;5.150;2023-03-23T06:49:21;100558.47;;;10.54;100.00
36726;BME280;44936;52.086;5.150;2023-03-23T06:51:51;100588.16;;;10.67;100.00
36726;BME280;44936;52.086;5.150;2023-03-23T06:54:19;100560.19;;;10.50;100.00
36726;BME280;44936;52.086;5.150;2023-03-23T06:56:44;100578.53;;;10.58;100.00
36726;BME280;44936;52.086;5.150;2023-03-23T06:59:10;100596.91;;;10.64;100.00
36726;BME280;44936;52.086;5.150;2023-03-23T07:01:38;100571.56;;;10.53;100.00
36726;BME280;44936;52.086;5.150;2023-03-23T07:04:05;100566.31;;;10.59;100.00
36726;BME280;44936;52.086;5.150;2023-03-23T07:06:33;100551.50;;;10.42;100.00
36726;BME280;44936;52.086;5.150;2023-03-23T07:08:59;100583.78;;;10.66;100.00
36726;BME280;44936;52.086;5.150;2023-03-23T07:11:30;100593.41;;;10.59;100.00
36726;BME280;44936;52.086;5.150;2023-03-23T07:13:59;100607.41;;;10.54;100.00
36726;BME280;44936;52.086;5.150;2023-03-23T07:16:28;100627.50;;;10.73;100.00
36726;BME280;44936;52.086;5.150;2023-03-23T07:18:53;100624.00;;;10.75;100.00
36726;BME280;44936;52.086;5.150;2023-03-23T07:21:22;100624.00;;;10.78;100.00
36726;BME280;44936;52.086;5.150;2023-03-23T07:23:48;100634.47;;;10.77;100.00
36726;BME280;44936;52.086;5.150;2023-03-23T07:26:13;100638.88;;;10.73;100.00
36726;BME280;44936;52.086;5.150;2023-03-23T07:28:45;100636.25;;;10.73;100.00
36726;BME280;44936;52.086;5.150;2023-03-23T07:31:15;100646.75;;;10.78;100.00
36726;BME280;44936;52.086;5.150;2023-03-23T07:33:41;100634.47;;;10.68;100.00
36726;BME280;44936;52.086;5.150;2023-03-23T07:36:07;100685.19;;;10.76;100.00
36726;BME280;44936;52.086;5.150;2023-03-23T07:38:33;100683.44;;;10.84;100.00
36726;BME280;44936;52.086;5.150;2023-03-23T07:40:58;100724.56;;;10.87;100.00
36726;BME280;44936;52.086;5.150;2023-03-23T07:43:27;100728.94;;;10.85;100.00
36726;BME280;44936;52.086;5.150;2023-03-23T07:45:55;100731.56;;;10.83;100.00
36726;BME280;44936;52.086;5.150;2023-03-23T07:48:21;100739.44;;;11.04;100.00
36726;BME280;44936;52.086;5.150;2023-03-23T07:50:47;100722.81;;;11.01;100.00
36726;BME280;44936;52.086;5.150;2023-03-23T07:53:13;100726.28;;;11.21;100.00
36726;BME280;44936;52.086;5.150;2023-03-23T07:55:39;100730.66;;;11.24;100.00
36726;BME280;44936;52.086;5.150;2023-03-23T07:58:04;100734.19;;;11.15;100.00
36726;BME280;44936;52.086;5.150;2023-03-23T08:00:30;100753.41;;;11.13;100.00
36726;BME280;44936;52.086;5.150;2023-03-23T08:02:56;100777.03;;;11.25;100.00
36726;BME280;44936;52.086;5.150;2023-03-23T08:05:23;100777.94;;;11.24;100.00
36726;BME280;44936;52.086;5.150;2023-03-23T08:07:52;100772.69;;;11.16;100.00
36726;BME280;44936;52.086;5.150;2023-03-23T08:10:28;100759.56;;;11.05;100.00
36726;BME280;44936;52.086;5.150;2023-03-23T08:12:56;100770.91;;;11.09;100.00
36726;BME280;44936;52.086;5.150;2023-03-23T08:15:22;100775.28;;;11.01;100.00
36726;BME280;44936;52.086;5.150;2023-03-23T08:17:52;100810.31;;;11.23;100.00
36726;BME280;44936;52.086;5.150;2023-03-23T08:20:18;100818.16;;;11.26;100.00
36726;BME280;44936;52.086;5.150;2023-03-23T08:22:53;100794.53;;;11.29;100.00
36726;BME280;44936;52.086;5.150;2023-03-23T08:25:19;100813.78;;;11.46;100.00
36726;BME280;44936;52.086;5.150;2023-03-23T08:27:45;100816.41;;;11.45;100.00
36726;BME280;44936;52.086;5.150;2023-03-23T08:30:15;100780.53;;;11.42;100.00
36726;BME280;44936;52.086;5.150;2023-03-23T08:32:41;100819.00;;;11.57;100.00
36726;BME280;44936;52.086;5.150;2023-03-23T08:35:11;100825.16;;;11.59;100.00
36726;BME280;44936;52.086;5.150;2023-03-23T08:37:38;100828.66;;;11.58;100.00
36726;BME280;44936;52.086;5.150;2023-03-23T08:40:10;100805.91;;;11.49;100.00
36726;BME280;44936;52.086;5.150;2023-03-23T08:42:40;100848.78;;;11.65;100.00
36726;BME280;44936;52.086;5.150;2023-03-23T08:45:07;100819.91;;;11.57;100.00
36726;BME280;44936;52.086;5.150;2023-03-23T08:47:43;100847.91;;;11.61;100.00
36726;BME280;44936;52.086;5.150;2023-03-23T08:50:15;100854.03;;;11.68;100.00
36726;BME280;44936;52.086;5.150;2023-03-23T08:52:41;100840.03;;;11.64;100.00
36726;BME280;44936;52.086;5.150;2023-03-23T08:55:12;100863.66;;;11.71;100.00
36726;BME280;44936;52.086;5.150;2023-03-23T08:57:40;100859.31;;;11.80;100.00
36726;BME280;44936;52.086;5.150;2023-03-23T09:00:13;100842.66;;;11.80;100.00
36726;BME280;44936;52.086;5.150;2023-03-23T09:02:52;100855.75;;;11.92;100.00
36726;BME280;44936;52.086;5.150;2023-03-23T09:05:22;100854.03;;;11.89;100.00
36726;BME280;44936;52.086;5.150;2023-03-23T09:07:52;100876.78;;;11.97;100.00
36726;BME280;44936;52.086;5.150;2023-03-23T09:10:19;100861.91;;;11.88;100.00
36726;BME280;44936;52.086;5.150;2023-03-23T09:12:45;100854.91;;;11.78;100.00
36726;BME280;44936;52.086;5.150;2023-03-23T09:15:16;100857.50;;;11.75;100.00
36726;BME280;44936;52.086;5.150;2023-03-23T09:17:48;100847.91;;;11.72;100.00
36726;BME280;44936;52.086;5.150;2023-03-23T09:20:25;100847.03;;;11.70;100.00
36726;BME280;44936;52.086;5.150;2023-03-23T09:22:55;100868.94;;;11.86;100.00
36726;BME280;44936;52.086;5.150;2023-03-23T09:25:23;100848.75;;;11.74;100.00
36726;BME280;44936;52.086;5.150;2023-03-23T09:27:55;100829.53;;;11.60;100.00
36726;BME280;44936;52.086;5.150;2023-03-23T09:30:26;100853.16;;;11.57;100.00
36726;BME280;44936;52.086;5.150;2023-03-23T09:32:52;100844.41;;;11.53;100.00
36726;BME280;44936;52.086;5.150;2023-03-23T09:35:19;100879.44;;;11.86;100.00
36726;BME280;44936;52.086;5.150;2023-03-23T09:37:51;100877.69;;;11.82;100.00
36726;BME280;44936;52.086;5.150;2023-03-23T09:40:21;100849.66;;;11.62;100.00
36726;BME280;44936;52.086;5.150;2023-03-23T09:43:09;100889.09;;;11.85;100.00
36726;BME280;44936;52.086;5.150;2023-03-23T09:45:48;100868.06;;;11.82;100.00
36726;BME280;44936;52.086;5.150;2023-03-23T09:51:06;100826.91;;;11.55;100.00
36726;BME280;44936;52.086;5.150;2023-03-23T09:53:40;100895.19;;;11.98;100.00
36726;BME280;44936;52.086;5.150;2023-03-23T09:56:14;100869.81;;;11.94;100.00
36726;BME280;44936;52.086;5.150;2023-03-23T09:58:49;100835.63;;;11.88;100.00
36726;BME280;44936;52.086;5.150;2023-03-23T10:01:21;100883.81;;;11.88;100.00
36726;BME280;44936;52.086;5.150;2023-03-23T10:03:55;100863.66;;;11.83;100.00
36726;BME280;44936;52.086;5.150;2023-03-23T10:06:23;100861.03;;;11.71;100.00
36726;BME280;44936;52.086;5.150;2023-03-23T10:08:53;100882.91;;;11.93;100.00
36726;BME280;44936;52.086;5.150;2023-03-23T10:11:52;100888.19;;;11.91;100.00
36726;BME280;44936;52.086;5.150;2023-03-23T10:15:33;100887.28;;;12.07;100.00
36726;BME280;44936;52.086;5.150;2023-03-23T10:17:44;100868.91;;;12.00;100.00
36726;BME280;44936;52.086;5.150;2023-03-23T10:20:30;100885.50;;;12.15;100.00
36726;BME280;44936;52.086;5.150;2023-03-23T10:25:43;100833.00;;;11.71;100.00
36726;BME280;44936;52.086;5.150;2023-03-23T10:28:13;100842.66;;;11.61;100.00
36726;BME280;44936;52.086;5.150;2023-03-23T10:30:53;100851.41;;;11.54;100.00
36726;BME280;44936;52.086;5.150;2023-03-23T10:33:41;100881.16;;;11.75;100.00
36726;BME280;44936;52.086;5.150;2023-03-23T10:36:24;100900.47;;;11.81;100.00
36726;BME280;44936;52.086;5.150;2023-03-23T10:41:33;100859.22;;;12.09;100.00
36726;BME280;44936;52.086;5.150;2023-03-23T10:43:58;100867.94;;;12.25;100.00
36726;BME280;44936;52.086;5.150;2023-03-23T10:49:15;100860.84;;;12.45;100.00
36726;BME280;44936;52.086;5.150;2023-03-23T10:51:50;100809.13;;;12.43;100.00
36726;BME280;44936;52.086;5.150;2023-03-23T10:54:27;100799.56;;;12.31;100.00
36726;BME280;44936;52.086;5.150;2023-03-23T10:56:57;100787.38;;;12.10;100.00
36726;BME280;44936;52.086;5.150;2023-03-23T10:59:30;100850.34;;;12.42;100.00
36726;BME280;44936;52.086;5.150;2023-03-23T11:02:00;100866.94;;;12.58;100.00
36726;BME280;44936;52.086;5.150;2023-03-23T11:04:29;100847.69;;;12.50;100.00
36726;BME280;44936;52.086;5.150;2023-03-23T11:06:59;100851.25;;;12.35;100.00
36726;BME280;44936;52.086;5.150;2023-03-23T11:09:50;100825.03;;;12.20;100.00
36726;BME280;44936;52.086;5.150;2023-03-23T11:12:18;100863.50;;;12.36;100.00
36726;BME280;44936;52.086;5.150;2023-03-23T11:14:44;100847.75;;;12.35;100.00
36726;BME280;44936;52.086;5.150;2023-03-23T11:17:26;100821.50;;;12.29;100.00
36726;BME280;44936;52.086;5.150;2023-03-23T11:19:53;100840.78;;;12.18;100.00
36726;BME280;44936;52.086;5.150;2023-03-23T11:22:28;100816.25;;;12.21;100.00
36726;BME280;44936;52.086;5.150;2023-03-23T11:25:01;100807.50;;;12.17;100.00
36726;BME280;44936;52.086;5.150;2023-03-23T11:27:29;100807.47;;;12.24;100.00
36726;BME280;44936;52.086;5.150;2023-03-23T11:30:01;100770.75;;;11.99;100.00
36726;BME280;44936;52.086;5.150;2023-03-23T11:32:28;100825.88;;;12.28;100.00
36726;BME280;44936;52.086;5.150;2023-03-23T11:35:00;100825.84;;;12.33;100.00
36726;BME280;44936;52.086;5.150;2023-03-23T11:37:41;100852.13;;;12.36;100.00
36726;BME280;44936;52.086;5.150;2023-03-23T11:50:30;100811.63;;;12.69;100.00
36726;BME280;44936;52.086;5.150;2023-03-23T11:58:19;100834.19;;;13.05;100.00
36726;BME280;44936;52.086;5.150;2023-03-23T12:00:58;100774.66;;;12.90;100.00
36726;BME280;44936;52.086;5.150;2023-03-23T12:06:07;100789.44;;;13.03;100.00
36726;BME280;44936;52.086;5.150;2023-03-23T12:11:23;100797.97;;;13.38;100.00
36726;BME280;44936;52.086;5.150;2023-03-23T12:14:14;100791.84;;;13.32;100.00
36726;BME280;44936;52.086;5.150;2023-03-23T12:19:53;100772.69;;;13.14;100.00
36726;BME280;44936;52.086;5.150;2023-03-23T12:25:08;100799.22;;;12.86;100.00
36726;BME280;44936;52.086;5.150;2023-03-23T12:27:40;100817.63;;;12.91;100.00
36726;BME280;44936;52.086;5.150;2023-03-23T12:30:23;100789.56;;;12.90;100.00
36726;BME280;44936;52.086;5.150;2023-03-23T12:33:09;100769.38;;;12.87;100.00
36726;BME280;44936;52.086;5.150;2023-03-23T12:35:52;100799.09;;;13.04;100.00
36726;BME280;44936;52.086;5.150;2023-03-23T12:44:05;100782.19;;;13.33;100.00
36726;BME280;44936;52.086;5.150;2023-03-23T12:49:24;100768.19;;;13.29;100.00
36726;BME280;44936;52.086;5.150;2023-03-23T12:52:28;100776.75;;;13.50;100.00
36726;BME280;44936;52.086;5.150;2023-03-23T12:55:05;100774.00;;;13.64;100.00
36726;BME280;44936;52.086;5.150;2023-03-23T12:57:54;100767.00;;;13.61;100.00
36726;BME280;44936;52.086;5.150;2023-03-23T13:00:27;100729.34;;;13.50;100.00
36726;BME280;44936;52.086;5.150;2023-03-23T13:03:02;100737.13;;;13.59;100.00
36726;BME280;44936;52.086;5.150;2023-03-23T13:05:44;100722.13;;;13.67;100.00
36726;BME280;44936;52.086;5.150;2023-03-23T13:08:16;100703.50;;;13.81;100.00
36726;BME280;44936;52.086;5.150;2023-03-23T13:10:46;100725.28;;;13.97;100.00
36726;BME280;44936;52.086;5.150;2023-03-23T13:13:43;100692.88;;;13.88;100.00
36726;BME280;44936;52.086;5.150;2023-03-23T13:16:35;100736.47;;;14.12;100.00
36726;BME280;44936;52.086;5.150;2023-03-23T13:21:51;100748.00;;;14.07;100.00
36726;BME280;44936;52.086;5.150;2023-03-23T13:24:23;100760.47;;;13.93;100.00
36726;BME280;44936;52.086;5.150;2023-03-23T13:26:51;100754.41;;;13.86;100.00
36726;BME280;44936;52.086;5.150;2023-03-23T13:29:21;100725.53;;;13.75;100.00
36726;BME280;44936;52.086;5.150;2023-03-23T13:31:49;100702.88;;;13.59;100.00
36726;BME280;44936;52.086;5.150;2023-03-23T13:34:22;100757.06;;;13.84;100.00
36726;BME280;44936;52.086;5.150;2023-03-23T13:39:28;100758.94;;;13.73;100.00
36726;BME280;44936;52.086;5.150;2023-03-23T13:42:01;100750.09;;;13.77;100.00
36726;BME280;44936;52.086;5.150;2023-03-23T13:47:14;100748.25;;;13.85;100.00
36726;BME280;44936;52.086;5.150;2023-03-23T13:49:47;100750.00;;;13.86;100.00
36726;BME280;44936;52.086;5.150;2023-03-23T14:00:43;100783.50;;;13.78;100.00
36726;BME280;44936;52.086;5.150;2023-03-23T14:05:36;100845.81;;;12.73;100.00
36726;BME280;44936;52.086;5.150;2023-03-23T14:08:11;100834.56;;;12.47;100.00
36726;BME280;44936;52.086;5.150;2023-03-23T14:10:55;100896.72;;;12.72;100.00
36726;BME280;44936;52.086;5.150;2023-03-23T14:13:31;100861.66;;;12.66;100.00
36726;BME280;44936;52.086;5.150;2023-03-23T14:18:35;100850.34;;;12.42;100.00
36726;BME280;44936;52.086;5.150;2023-03-23T14:21:01;100845.94;;;12.49;100.00
36726;BME280;44936;52.086;5.150;2023-03-23T14:23:26;100846.88;;;12.37;100.00